Tuesday, May 23, 2017, 12:40 PM EDT

KSEG, Selinsgrove Penn Valley Airport

Location: Selinsgrove, PA, United States Lat: 40.817
Local Time: 12:40 PM EDT (16:40 GMT) Lon: -76.867
Time Zone: US/Eastern Elev: 449 ft

Show me the last for .
Show Decoded

2017-05-23 11:53 METAR KSEG 231553Z AUTO 00000KT 10SM CLR 17/10 A2995 RMK AO2 SLP143 T01720100
                 PWINO PNO $ =
2017-05-23 10:53 METAR KSEG 231453Z AUTO 00000KT 10SM CLR 17/11 A2997 RMK AO2 SLP150 6////
                 T01720111 58003 PWINO PNO $ =
2017-05-23 09:53 METAR KSEG 231353Z AUTO 00000KT 10SM CLR 15/12 A2999 RMK AO2 SLP156 T01500122
                 PWINO PNO $ =
2017-05-23 08:53 METAR KSEG 231253Z AUTO 00000KT 10SM CLR 13/12 A2998 RMK AO2 SLP152 T01330117
                 PWINO PNO $ =
2017-05-23 07:53 METAR KSEG 231153Z AUTO 32003KT 9SM CLR 11/11 A2998 RMK AO2 SLP153 6//// 7////
                 T01110106 10111 20072 53003 PWINO PNO $ =
2017-05-23 06:53 METAR KSEG 231053Z AUTO 00000KT 7SM CLR 09/09 A2998 RMK AO2 SLP150 T00890089
                 PWINO PNO $ =
2017-05-23 05:53 METAR KSEG 230953Z AUTO 00000KT 4SM BR CLR 08/08 A2997 RMK AO2 SLP149 T00780078
                 PWINO PNO $ =
2017-05-23 04:53 METAR KSEG 230853Z AUTO 00000KT 7SM CLR 08/08 A2998 RMK AO2 SLP150 6////
                 T00830083 58001 PWINO PNO $ =
2017-05-23 03:53 METAR KSEG 230753Z AUTO 32003KT 7SM CLR 09/09 A2998 RMK AO2 SLP152 T00890089
                 PWINO PNO $ =
2017-05-23 03:28 METAR KSEG 230728Z AUTO 34006KT 9SM CLR 09/09 A2999 RMK AO2 T00940094 PWINO PNO
                 $ =
2017-05-23 03:20 METAR KSEG 230720Z AUTO 00000KT 2 1/2SM BR CLR 08/08 A2999 RMK AO2 T00830083
                 PWINO PNO $ =
2017-05-23 02:53 METAR KSEG 230653Z AUTO 00000KT 5SM BR CLR 10/10 A2999 RMK AO2 SLP153 T01000100
                 PWINO PNO $ =
2017-05-23 02:25 METAR KSEG 230625Z AUTO 01003KT 4SM BR CLR 11/10 A2999 RMK AO2 T01060100 PWINO
                 PNO $ =
2017-05-23 02:18 METAR KSEG 230618Z AUTO 00000KT 1 1/4SM BR FEW002 10/09 A2999 RMK AO2 T01000094
                 PWINO PNO $ =
2017-05-23 01:53 METAR KSEG 230553Z AUTO 30003KT 2 1/2SM BR CLR 10/10 A2998 RMK AO2 SLP151 6////
                 T01000100 10172 20094 58008 PWINO PNO $ =
2017-05-23 01:46 METAR KSEG 230546Z AUTO 33003KT 3SM BR CLR 11/11 A2998 RMK AO2 T01060106 PWINO
                 PNO $ =
2017-05-23 01:43 METAR KSEG 230543Z AUTO 35003KT 1 1/4SM BR CLR 11/11 A2998 RMK AO2 T01060106
                 PWINO PNO $ =
2017-05-23 01:26 METAR KSEG 230526Z AUTO 00000KT 3/4SM BR CLR 09/09 A2999 RMK AO2 T00940094 PWINO
                 PNO $ =
2017-05-23 01:23 METAR KSEG 230523Z AUTO 00000KT 1 3/4SM BR CLR 10/10 A2999 RMK AO2 T01000100
                 PWINO PNO $ =
2017-05-23 01:07 METAR KSEG 230507Z AUTO 32003KT 3SM BR CLR 12/12 A2999 RMK AO2 T01170117 PWINO
                 PNO $ =
2017-05-23 01:00 METAR KSEG 230500Z AUTO 00000KT 2 1/2SM BR FEW002 12/12 A3000 RMK AO2 T01170117
                 PWINO PNO $ =
2017-05-23 00:53 METAR KSEG 230453Z AUTO 34003KT 1 3/4SM BR FEW002 12/12 A3000 RMK AO2 SLP157
                 T01170117 401830111 PWINO PNO $ =
2017-05-23 00:44 METAR KSEG 230444Z AUTO 00000KT 1 1/4SM BR FEW002 12/12 A3000 RMK AO2 T01170117
                 PWINO PNO $ =
2017-05-23 00:15 METAR KSEG 230415Z AUTO 00000KT 3/4SM BR VV001 12/12 A3000 RMK AO2 T01170117
                 PWINO PNO $ =
2017-05-23 00:12 METAR KSEG 230412Z AUTO 00000KT 1 1/4SM BR SCT001 12/12 A3000 RMK AO2 T01170117
                 PWINO PNO $ =
2017-05-22 23:53 METAR KSEG 230353Z AUTO 00000KT 1SM BR VV003 13/13 A3000 RMK AO2 SLP159
                 T01280128 PWINO PNO $ =
2017-05-22 23:51 METAR KSEG 230351Z AUTO 30003KT 3/4SM BR VV003 13/13 A3000 RMK AO2 PWINO PNO $ =
2017-05-22 23:41 METAR KSEG 230341Z AUTO 32003KT 3/4SM BR CLR 12/12 A3000 RMK AO2 T01170117 PWINO
                 PNO $ =
2017-05-22 23:36 METAR KSEG 230336Z AUTO 32003KT 1 3/4SM BR CLR 13/13 A3000 RMK AO2 T01280128
                 PWINO PNO $ =
2017-05-22 22:53 METAR KSEG 230253Z AUTO 00000KT 6SM BR CLR 14/14 A3000 RMK AO2 SLP157 6////
                 T01440139 53005 PWINO PNO $ =
2017-05-22 21:53 METAR KSEG 230153Z AUTO 00000KT 8SM CLR 16/14 A2999 RMK AO2 SLP155 T01560139
                 PWINO PNO $ =
2017-05-22 20:53 METAR KSEG 230053Z AUTO 18003KT 10SM FEW016 17/14 A2998 RMK AO2 SLP153 T01670144
                 PWINO PNO $ =
2017-05-22 20:49 METAR KSEG 230049Z AUTO 17004KT 10SM SCT016 17/14 A2998 RMK AO2 PWINO PNO $ =
2017-05-22 19:53 METAR KSEG 222353Z AUTO VRB04KT 9SM OVC019 17/15 A2998 RMK AO2 SLP151 6////
                 T01720150 10183 20161 53010 PWINO PNO $ =
2017-05-22 18:53 METAR KSEG 222253Z AUTO 22004KT 10SM BKN020 18/14 A2995 RMK AO2 SLP141 T01780144
                 PWINO PNO $ =
2017-05-22 17:53 METAR KSEG 222153Z AUTO 18005KT 10SM OVC017 18/15 A2995 RMK AO2 SLP141 T01780150
                 PWINO PNO $ =
2017-05-22 16:53 METAR KSEG 222053Z AUTO 16007KT 10SM BKN016 18/14 A2995 RMK AO2 SLP140 6////
                 T01780144 56014 PWINO PNO $ =
2017-05-22 15:53 METAR KSEG 221953Z AUTO 18006KT 10SM OVC016 18/14 A2996 RMK AO2 SLP145 T01780144
                 PWINO PNO $ =
2017-05-22 15:49 METAR KSEG 221949Z AUTO VRB03KT 10SM OVC016 18/14 A2996 RMK AO2 PWINO PNO $ =
2017-05-22 15:15 METAR KSEG 221915Z AUTO 18006KT 10SM OVC014 17/13 A2998 RMK AO2 T01670133 PWINO
                 PNO $ =
2017-05-22 14:53 METAR KSEG 221853Z AUTO VRB05KT 9SM OVC015 17/14 A2999 RMK AO2 SLP154 T01720139
                 PWINO PNO $ =
2017-05-22 14:49 METAR KSEG 221849Z AUTO 19004KT 10SM OVC015 17/13 A2999 RMK AO2 PWINO PNO $ =
2017-05-22 13:53 METAR KSEG 221753Z AUTO 19005KT 10SM OVC014 17/13 A3001 RMK AO2 SLP162 6////
                 T01670133 10167 20144 58012 PWINO PNO $ =
2017-05-22 12:53 METAR KSEG 221653Z AUTO VRB03KT 10SM OVC014 16/13 A3003 RMK AO2 SLP168 T01560133
                 PWINO PNO $ =

Support USWX by starting your Amazon purchase here.